Cruise inventory

FRV Scotia 0690S

Cruise summary report

Cruise Info. 
Ship name (ship code)FRV Scotia (749S)
Cruise identifier0690S
Cruise period1990-06-06 — 1990-06-26
StatusCompleted
Port of departureAberdeen, United Kingdom
Port of returnAberdeen, United Kingdom
Objectives(1) To investigate the vertical and horizontal structure of the fish community in an area of the northwestern North Sea around Orkney and Shetland by echointegration and trawling.
(2) To investigate the predator-prey relationships within the fish community as part of an investigation of the factors controlling recruitment to the sandeel and gadoid populations in the area.
(3) To carry out a hydrographic survey of the area.
(4) To carry out seabird observations.
(5) To investigate the parasites of O-group sandeels.
Chief scientistRoger S Bailey (Scottish Office Agriculture and Fisheries Department Aberdeen Marine Laboratory)
Cruise reportFRV Scotia 0690S cruise report sc06_90.pdf — access key 'C' (0.13 MB) 
Ocean/sea areas 
GeneralNorth Sea
SpecificShetland/Fair Isle
Measurements 
Physical oceanography 
CTD stationsQuantity: number of stations = 48
Biology and fisheries 
Birds
Pelagic fishDescription: trawls
Demersal fishDescription: trawls
Acoustic reflection on marine organisms.
Other biological/fisheries measurementDescription: parasites in sandeels
Data held at BODC 
Series/Profiles 
48  CTD/STD cast
Density of the water column
Electrical conductivity of the water column
Vertical spatial coordinates
Salinity of the water column
Temperature of the water column
Density of the water column
Electrical conductivity of the water column
Vertical spatial coordinates
Salinity of the water column
Temperature of the water column

BODC idDate/TimeLocationDoc.
4097041990-06-08 20:21 59° 31' 47" N  1° 32' 41" W  View metadata report for BODC series reference number 409704
4097161990-06-09 14:53 59° 56' 6" N  1° 52' 16" W  View metadata report for BODC series reference number 409716
4097281990-06-10 06:08 60° 4' 59" N  0° 59' 52" E  View metadata report for BODC series reference number 409728
4097411990-06-10 06:59 60° 4' 59" N  0° 44' 58" E  View metadata report for BODC series reference number 409741
4097531990-06-10 08:00 60° 5' 3" N  0° 30' 7" E  View metadata report for BODC series reference number 409753
4097651990-06-10 08:56 60° 5' 0" N  0° 15' 8" E  View metadata report for BODC series reference number 409765
4097771990-06-10 09:54 60° 4' 59" N  0° 0' 0" E  View metadata report for BODC series reference number 409777
4097891990-06-10 10:51 60° 4' 59" N  0° 14' 53" W  View metadata report for BODC series reference number 409789
4097901990-06-10 11:53 60° 4' 58" N  0° 29' 49" W  View metadata report for BODC series reference number 409790
4098081990-06-10 12:52 60° 4' 55" N  0° 45' 5" W  View metadata report for BODC series reference number 409808
4098211990-06-10 13:49 60° 4' 58" N  0° 59' 57" W  View metadata report for BODC series reference number 409821
4098331990-06-10 14:46 60° 4' 59" N  1° 10' 4" W  View metadata report for BODC series reference number 409833
4098451990-06-10 21:26 60° 4' 58" N  1° 30' 3" W  View metadata report for BODC series reference number 409845
4098571990-06-10 22:24 60° 4' 49" N  1° 44' 51" W  View metadata report for BODC series reference number 409857
4098691990-06-10 23:20 60° 4' 59" N  1° 59' 58" W  View metadata report for BODC series reference number 409869
4098701990-06-11 00:29 60° 4' 59" N  2° 14' 59" W  View metadata report for BODC series reference number 409870
4098821990-06-11 01:26 60° 4' 58" N  2° 30' 0" W  View metadata report for BODC series reference number 409882
4098941990-06-11 02:20 60° 4' 59" N  2° 45' 2" W  View metadata report for BODC series reference number 409894
4099011990-06-11 03:20 60° 4' 58" N  3° 0' 19" W  View metadata report for BODC series reference number 409901
4099131990-06-14 11:08 59° 20' 1" N  0° 0' 2" E  View metadata report for BODC series reference number 409913
4099251990-06-14 12:08 59° 20' 3" N  0° 14' 54" W  View metadata report for BODC series reference number 409925
4099371990-06-14 13:24 59° 20' 3" N  0° 30' 0" W  View metadata report for BODC series reference number 409937
4099491990-06-14 14:24 59° 19' 58" N  0° 44' 58" W  View metadata report for BODC series reference number 409949
4099501990-06-14 15:20 59° 19' 55" N  1° 0' 8" W  View metadata report for BODC series reference number 409950
4099621990-06-14 15:58 59° 20' 2" N  1° 9' 58" W  View metadata report for BODC series reference number 409962
4099741990-06-14 16:39 59° 19' 56" N  1° 20' 4" W  View metadata report for BODC series reference number 409974
4099861990-06-14 17:15 59° 20' 0" N  1° 29' 53" W  View metadata report for BODC series reference number 409986
4099981990-06-14 17:52 59° 20' 0" N  1° 39' 59" W  View metadata report for BODC series reference number 409998
4100111990-06-14 18:28 59° 20' 0" N  1° 50' 0" W  View metadata report for BODC series reference number 410011
4100231990-06-14 19:06 59° 20' 3" N  2° 0' 9" W  View metadata report for BODC series reference number 410023
4100351990-06-14 19:44 59° 20' 6" N  2° 10' 5" W  View metadata report for BODC series reference number 410035
4100471990-06-14 20:43 59° 20' 6" N  2° 10' 5" W  View metadata report for BODC series reference number 410047
4100591990-06-19 12:19 59° 50' 3" N  1° 20' 33" W  View metadata report for BODC series reference number 410059
4100601990-06-19 14:18 59° 46' 34" N  1° 28' 3" W  View metadata report for BODC series reference number 410060
4100841990-06-19 17:08 59° 39' 33" N  1° 44' 21" W  View metadata report for BODC series reference number 410084
4100961990-06-19 17:55 59° 36' 2" N  1° 52' 46" W  View metadata report for BODC series reference number 410096
4101031990-06-19 18:40 59° 32' 29" N  2° 1' 21" W  View metadata report for BODC series reference number 410103
4101151990-06-19 19:29 59° 28' 37" N  2° 9' 38" W  View metadata report for BODC series reference number 410115
4101271990-06-19 20:39 59° 25' 9" N  2° 18' 7" W  View metadata report for BODC series reference number 410127
4101391990-06-22 19:11 59° 24' 58" N  2° 29' 51" W  View metadata report for BODC series reference number 410139
4101401990-06-22 20:32 59° 32' 27" N  2° 29' 48" W  View metadata report for BODC series reference number 410140
4101521990-06-22 22:09 59° 39' 58" N  2° 29' 37" W  View metadata report for BODC series reference number 410152
4101641990-06-22 23:33 59° 47' 25" N  2° 29' 44" W  View metadata report for BODC series reference number 410164
4101761990-06-23 00:32 59° 54' 53" N  2° 30' 1" W  View metadata report for BODC series reference number 410176
4101881990-06-23 01:53 60° 2' 38" N  2° 30' 13" W  View metadata report for BODC series reference number 410188
4102071990-06-23 02:51 60° 10' 5" N  2° 30' 11" W  View metadata report for BODC series reference number 410207
4102191990-06-23 13:29 59° 31' 0" N  1° 32' 48" W  View metadata report for BODC series reference number 410219
4100721990-06-19 15:30 59° 43' 4" N  1° 36' 2" W  View metadata report for BODC series reference number 410072